createdAt,value
2023-05-04T00:02:12.881Z,100786.38
2023-05-04T00:04:42.692Z,100789.34
2023-05-04T00:07:10.462Z,100777.81
2023-05-04T00:09:38.081Z,100774.44
2023-05-04T00:12:06.652Z,100780.53
2023-05-04T00:14:34.220Z,100782.75
2023-05-04T00:17:03.023Z,100781.19
2023-05-04T00:19:30.666Z,100779.53
2023-05-04T00:21:59.633Z,100775.81
2023-05-04T00:24:27.307Z,100779.34
2023-05-04T00:26:54.836Z,100767.84
2023-05-04T00:29:23.974Z,100772.19
2023-05-04T00:31:51.765Z,100771.22
2023-05-04T00:34:19.473Z,100771.00
2023-05-04T00:36:47.543Z,100769.22
2023-05-04T00:39:16.465Z,100762.09
2023-05-04T00:41:44.490Z,100765.25
2023-05-04T00:44:12.549Z,100766.53
2023-05-04T00:46:40.116Z,100759.34
2023-05-04T00:49:08.872Z,100773.06
2023-05-04T00:51:37.625Z,100769.34
2023-05-04T00:54:05.893Z,100766.69
2023-05-04T00:56:41.038Z,100760.88
2023-05-04T00:59:08.634Z,100753.50
2023-05-04T01:01:36.254Z,100747.31
2023-05-04T01:04:04.157Z,100754.13
2023-05-04T01:06:39.647Z,100749.06
2023-05-04T01:09:12.337Z,100751.41
2023-05-04T01:11:48.194Z,100748.75
2023-05-04T01:14:15.844Z,100746.41
2023-05-04T01:16:43.503Z,100747.91
2023-05-04T01:19:11.403Z,100740.25
2023-05-04T01:21:40.654Z,100742.44
2023-05-04T01:24:08.329Z,100738.41
2023-05-04T01:26:41.688Z,100743.56
2023-05-04T01:29:15.797Z,100744.09
2023-05-04T01:31:46.071Z,100744.94
2023-05-04T01:34:14.462Z,100747.94
2023-05-04T01:36:45.401Z,100748.75
2023-05-04T01:39:13.060Z,100749.00
2023-05-04T01:41:41.502Z,100743.81
2023-05-04T01:44:09.170Z,100743.78
2023-05-04T01:46:36.876Z,100745.97
2023-05-04T01:49:04.591Z,100743.09
2023-05-04T01:51:32.143Z,100747.28
2023-05-04T01:54:01.329Z,100737.13
2023-05-04T01:56:28.868Z,100745.34
2023-05-04T01:58:56.475Z,100748.19
2023-05-04T02:01:24.184Z,100738.63
2023-05-04T02:03:52.126Z,100744.50
2023-05-04T02:06:19.895Z,100746.16
2023-05-04T02:08:47.804Z,100743.00
2023-05-04T02:11:16.659Z,100749.38
2023-05-04T02:13:44.402Z,100742.34
2023-05-04T02:16:11.993Z,100746.34
2023-05-04T02:18:39.723Z,100747.06
2023-05-04T02:21:07.361Z,100752.88
2023-05-04T02:23:35.119Z,100745.69
2023-05-04T02:26:02.725Z,100745.38
2023-05-04T02:28:31.631Z,100748.38
2023-05-04T02:30:59.443Z,100738.03
2023-05-04T02:33:27.051Z,100740.56
2023-05-04T02:35:54.643Z,100749.56
2023-05-04T02:38:22.287Z,100741.22
2023-05-04T02:40:49.848Z,100743.56
2023-05-04T02:43:17.509Z,100739.38
2023-05-04T02:45:46.691Z,100745.06
2023-05-04T02:48:14.301Z,100738.38
2023-05-04T02:50:41.979Z,100743.91
2023-05-04T02:53:09.562Z,100744.72
2023-05-04T02:55:37.164Z,100737.19
2023-05-04T02:58:04.730Z,100736.22
2023-05-04T03:00:32.571Z,100735.72
2023-05-04T03:03:01.712Z,100734.03
2023-05-04T03:05:29.358Z,100734.88
2023-05-04T03:07:57.169Z,100728.19
2023-05-04T03:10:24.764Z,100732.53
2023-05-04T03:12:52.395Z,100731.69
2023-05-04T03:15:20.101Z,100733.03
2023-05-04T03:17:47.859Z,100732.34
2023-05-04T03:20:17.035Z,100729.69
2023-05-04T03:22:44.745Z,100725.00
2023-05-04T03:25:12.296Z,100718.66
2023-05-04T03:27:39.878Z,100725.19
2023-05-04T03:30:08.712Z,100723.84
2023-05-04T03:32:36.428Z,100727.38
2023-05-04T03:35:04.307Z,100724.34
2023-05-04T03:37:33.231Z,100722.16
2023-05-04T03:40:00.807Z,100716.69
2023-05-04T03:42:28.515Z,100715.66
2023-05-04T03:44:56.095Z,100716.34
2023-05-04T03:47:23.818Z,100724.34
2023-05-04T03:49:51.398Z,100720.69
2023-05-04T03:52:19.005Z,100717.34
2023-05-04T03:54:47.921Z,100721.84
2023-05-04T03:57:15.603Z,100710.97
2023-05-04T03:59:43.261Z,100717.66
2023-05-04T04:02:10.845Z,100712.97
2023-05-04T04:04:40.581Z,100717.34
2023-05-04T04:07:08.344Z,100713.84
2023-05-04T04:09:37.400Z,100715.66
2023-05-04T04:12:06.769Z,100709.50
2023-05-04T04:14:34.785Z,100710.16
2023-05-04T04:17:02.437Z,100711.47
2023-05-04T04:19:29.985Z,100719.16
2023-05-04T04:21:58.948Z,100714.97
2023-05-04T04:24:26.738Z,100725.47
2023-05-04T04:26:54.301Z,100712.22
2023-05-04T04:29:23.273Z,100716.03
2023-05-04T04:31:51.092Z,100712.78
2023-05-04T04:34:18.828Z,100718.72
2023-05-04T04:36:46.464Z,100710.97
2023-05-04T04:39:14.321Z,100716.03
2023-05-04T04:41:41.971Z,100711.25
2023-05-04T04:44:09.935Z,100712.88
2023-05-04T04:46:38.850Z,100722.00
2023-05-04T04:49:07.198Z,100718.28
2023-05-04T04:51:34.999Z,100722.75
2023-05-04T04:54:02.566Z,100729.63
2023-05-04T04:56:30.560Z,100737.72
2023-05-04T04:58:58.826Z,100732.84
2023-05-04T05:01:27.280Z,100731.84
2023-05-04T05:03:56.245Z,100740.16
2023-05-04T05:06:23.982Z,100729.63
2023-05-04T05:08:51.682Z,100731.22
2023-05-04T05:11:19.568Z,100734.19
2023-05-04T05:13:47.193Z,100739.00
2023-05-04T05:16:14.788Z,100736.41
2023-05-04T05:18:42.635Z,100735.22
2023-05-04T05:21:14.064Z,100735.78
2023-05-04T05:23:41.802Z,100727.44
2023-05-04T05:26:09.335Z,100732.44
2023-05-04T05:28:37.197Z,100738.06
2023-05-04T05:31:05.195Z,100738.63
2023-05-04T05:33:33.077Z,100736.09
2023-05-04T05:36:00.702Z,100736.69
2023-05-04T05:38:29.687Z,100742.78
2023-05-04T05:40:57.263Z,100733.88
2023-05-04T05:43:24.973Z,100737.09
2023-05-04T05:45:52.720Z,100743.84
2023-05-04T05:48:20.490Z,100735.41
2023-05-04T05:50:48.053Z,100728.56
2023-05-04T05:53:15.723Z,100732.47
2023-05-04T05:55:44.916Z,100741.16
2023-05-04T05:58:12.567Z,100729.88
2023-05-04T06:00:40.298Z,100727.81
2023-05-04T06:03:08.170Z,100725.31
2023-05-04T06:05:36.203Z,100718.31
2023-05-04T06:08:03.840Z,100718.97
2023-05-04T06:10:31.467Z,100717.13
2023-05-04T06:13:00.472Z,100711.59
2023-05-04T06:15:28.112Z,100713.50
2023-05-04T06:17:55.811Z,100708.56
2023-05-04T06:20:23.677Z,100694.97
2023-05-04T06:22:51.293Z,100697.28
2023-05-04T06:25:18.982Z,100702.25
2023-05-04T06:27:47.037Z,100694.28
2023-05-04T06:30:19.541Z,100697.81
2023-05-04T06:32:47.534Z,100699.94
2023-05-04T06:35:15.190Z,100687.06
2023-05-04T06:37:43.036Z,100678.56
2023-05-04T06:40:12.509Z,100694.88
2023-05-04T06:42:40.554Z,100691.69
2023-05-04T06:45:09.558Z,100693.78
2023-05-04T06:47:41.152Z,100695.94
2023-05-04T06:50:10.408Z,100696.22
2023-05-04T06:52:44.788Z,100677.13
2023-05-04T06:55:12.621Z,100675.28
2023-05-04T06:57:41.463Z,100689.09
2023-05-04T07:00:10.586Z,100683.09
2023-05-04T07:02:40.554Z,100679.91
2023-05-04T07:05:09.313Z,100672.50
2023-05-04T07:07:38.445Z,100673.41
2023-05-04T07:10:07.082Z,100674.47
2023-05-04T07:12:34.991Z,100685.00
2023-05-04T07:15:02.649Z,100678.00
2023-05-04T07:17:32.475Z,100671.91
2023-05-04T07:20:03.587Z,100663.94
2023-05-04T07:22:35.814Z,100663.19
2023-05-04T07:25:03.896Z,100658.50
2023-05-04T07:27:34.818Z,100654.91
2023-05-04T07:30:02.852Z,100654.81
2023-05-04T07:32:33.145Z,100664.81
2023-05-04T07:35:14.508Z,100654.31
2023-05-04T07:37:43.156Z,100632.13
2023-05-04T07:40:11.796Z,100631.88
2023-05-04T07:42:39.619Z,100624.00
2023-05-04T07:45:09.702Z,100626.97
2023-05-04T07:47:39.002Z,100636.84
2023-05-04T07:50:09.347Z,100628.84
2023-05-04T07:52:37.105Z,100642.28
2023-05-04T07:55:05.467Z,100642.34
2023-05-04T07:57:35.757Z,100637.47
2023-05-04T08:00:04.835Z,100628.75
2023-05-04T08:02:32.751Z,100628.00
2023-05-04T08:05:00.455Z,100631.88
2023-05-04T08:07:32.284Z,100634.34
2023-05-04T08:10:00.221Z,100629.75
2023-05-04T08:12:28.133Z,100626.66
2023-05-04T08:14:55.952Z,100628.16
2023-05-04T08:17:26.557Z,100624.34
2023-05-04T08:19:54.884Z,100615.56
2023-05-04T08:22:22.555Z,100607.72
2023-05-04T08:24:54.920Z,100618.94
2023-05-04T08:27:22.821Z,100606.22
2023-05-04T08:29:50.564Z,100601.13
2023-05-04T08:32:18.724Z,100603.00
2023-05-04T08:34:46.417Z,100594.38
2023-05-04T08:37:14.321Z,100600.88
2023-05-04T08:39:43.446Z,100598.16
2023-05-04T08:42:12.901Z,100590.59
2023-05-04T08:44:43.316Z,100591.63
2023-05-04T08:47:11.486Z,100601.34
2023-05-04T08:49:39.112Z,100589.03
2023-05-04T08:52:09.970Z,100589.88
2023-05-04T08:54:47.050Z,100586.88
2023-05-04T08:57:19.915Z,100587.81
2023-05-04T08:59:52.322Z,100586.03
2023-05-04T09:02:21.753Z,100572.72
2023-05-04T09:04:50.263Z,100569.97
2023-05-04T09:07:19.002Z,100564.84
2023-05-04T09:09:47.454Z,100569.41
2023-05-04T09:12:16.889Z,100571.53
2023-05-04T09:14:46.546Z,100564.09
2023-05-04T09:17:16.351Z,100579.44
2023-05-04T09:19:44.653Z,100568.34
2023-05-04T09:22:17.236Z,100574.34
2023-05-04T09:24:45.620Z,100573.09
2023-05-04T09:27:16.363Z,100567.50
2023-05-04T09:29:45.624Z,100561.69
2023-05-04T09:32:15.234Z,100563.72
2023-05-04T09:34:50.793Z,100568.16
2023-05-04T09:37:20.716Z,100555.22
2023-05-04T09:39:57.715Z,100566.19
2023-05-04T09:42:26.952Z,100565.75
2023-05-04T09:45:04.157Z,100565.88
2023-05-04T09:47:34.146Z,100560.66
2023-05-04T09:50:12.630Z,100556.19
2023-05-04T09:52:41.582Z,100554.63
2023-05-04T09:55:13.680Z,100558.88
2023-05-04T09:57:42.522Z,100550.22
2023-05-04T10:00:19.482Z,100544.19
2023-05-04T10:05:31.484Z,100539.47
2023-05-04T10:08:13.951Z,100540.09
2023-05-04T10:10:41.662Z,100535.88
2023-05-04T10:13:09.363Z,100533.34
2023-05-04T10:15:46.766Z,100529.66
2023-05-04T10:18:30.770Z,100523.50
2023-05-04T10:21:15.454Z,100528.84
2023-05-04T10:24:01.857Z,100526.63
2023-05-04T10:26:59.365Z,100527.31
2023-05-04T10:29:31.542Z,100509.06
2023-05-04T10:32:03.403Z,100501.25
2023-05-04T10:34:33.228Z,100506.09
2023-05-04T10:37:03.187Z,100502.78
2023-05-04T10:39:32.426Z,100500.88
2023-05-04T10:42:02.592Z,100489.25
2023-05-04T10:44:33.176Z,100478.53
2023-05-04T10:47:05.211Z,100475.31
2023-05-04T10:49:33.742Z,100470.94
2023-05-04T10:52:08.962Z,100455.94
2023-05-04T10:54:37.154Z,100465.13
2023-05-04T10:57:06.324Z,100452.56
2023-05-04T10:59:36.718Z,100453.66
2023-05-04T11:02:07.599Z,100443.97
2023-05-04T11:04:36.268Z,100432.00
2023-05-04T11:07:05.990Z,100433.03
2023-05-04T11:09:38.687Z,100430.91
2023-05-04T11:12:07.246Z,100422.78
2023-05-04T11:14:41.303Z,100425.88
2023-05-04T11:17:26.900Z,100410.78
2023-05-04T11:19:56.490Z,100393.03
2023-05-04T11:22:24.411Z,100396.50
2023-05-04T11:24:53.662Z,100389.38
2023-05-04T11:27:23.502Z,100383.50
2023-05-04T11:29:56.633Z,100379.31
2023-05-04T11:32:35.915Z,100383.94
2023-05-04T11:35:04.382Z,100387.34
2023-05-04T11:37:38.414Z,100374.34
2023-05-04T11:40:10.794Z,100365.38
2023-05-04T11:42:38.742Z,100368.69
2023-05-04T11:45:09.620Z,100355.59
2023-05-04T11:47:39.648Z,100360.88
2023-05-04T11:50:12.846Z,100361.19
2023-05-04T11:52:44.559Z,100367.75
2023-05-04T11:55:20.730Z,100355.81
2023-05-04T11:57:57.095Z,100333.72
2023-05-04T12:00:35.621Z,100348.00
2023-05-04T12:03:05.783Z,100344.16
2023-05-04T12:05:36.517Z,100349.72
2023-05-04T12:08:04.815Z,100350.88
2023-05-04T12:10:34.826Z,100344.69
2023-05-04T12:13:03.036Z,100341.63
2023-05-04T12:15:33.298Z,100340.63
2023-05-04T12:18:03.132Z,100346.47
2023-05-04T12:26:50.249Z,100339.75
2023-05-04T12:29:30.488Z,100333.47
2023-05-04T12:31:58.363Z,100329.22
2023-05-04T12:34:26.025Z,100321.31
2023-05-04T12:36:55.417Z,100323.25
2023-05-04T12:39:23.148Z,100314.38
2023-05-04T12:41:50.862Z,100313.53
2023-05-04T12:44:21.493Z,100321.41
2023-05-04T12:46:49.343Z,100311.91
2023-05-04T12:49:18.630Z,100307.63
2023-05-04T12:51:46.465Z,100305.94
2023-05-04T12:54:15.427Z,100311.97
2023-05-04T12:56:43.314Z,100307.19
2023-05-04T12:59:11.760Z,100301.47
2023-05-04T13:01:40.844Z,100302.50
2023-05-04T13:04:08.580Z,100297.50
2023-05-04T13:06:36.592Z,100289.63
2023-05-04T13:09:05.879Z,100281.44
2023-05-04T13:11:35.388Z,100277.78
2023-05-04T13:14:03.167Z,100273.03
2023-05-04T13:16:31.185Z,100265.69
2023-05-04T13:18:58.872Z,100264.34
2023-05-04T13:21:26.579Z,100261.75
2023-05-04T13:23:54.302Z,100262.25
2023-05-04T13:26:21.984Z,100255.66
2023-05-04T13:28:51.417Z,100254.66
2023-05-04T13:31:19.355Z,100256.19
2023-05-04T13:33:50.386Z,100247.44
2023-05-04T13:36:18.041Z,100251.03
2023-05-04T13:38:45.662Z,100250.97
2023-05-04T13:41:13.509Z,100237.56
2023-05-04T13:43:41.135Z,100241.91
2023-05-04T13:46:10.335Z,100242.53
2023-05-04T13:48:38.000Z,100233.09
2023-05-04T13:51:06.094Z,100225.41
2023-05-04T13:53:34.424Z,100231.41
2023-05-04T13:56:02.879Z,100221.00
2023-05-04T13:58:32.623Z,100224.25
2023-05-04T14:01:01.095Z,100210.56
2023-05-04T14:03:34.788Z,100205.09
2023-05-04T14:06:02.413Z,100209.72
2023-05-04T14:08:30.011Z,100194.94
2023-05-04T14:10:58.540Z,100196.34
2023-05-04T14:13:26.310Z,100193.59
2023-05-04T14:15:55.083Z,100182.41
2023-05-04T14:18:22.741Z,100178.44
2023-05-04T14:20:51.628Z,100175.97
2023-05-04T14:23:19.189Z,100166.50
2023-05-04T14:25:51.374Z,100162.22
2023-05-04T14:28:19.154Z,100165.22
2023-05-04T14:30:51.215Z,100166.03
2023-05-04T14:33:19.948Z,100158.97
2023-05-04T14:35:48.774Z,100160.28
2023-05-04T14:38:19.028Z,100165.50
2023-05-04T14:40:48.984Z,100152.09
2023-05-04T14:43:17.399Z,100159.75
2023-05-04T14:45:44.962Z,100144.72
2023-05-04T14:48:12.850Z,100150.75
2023-05-04T14:50:51.319Z,100148.50
2023-05-04T14:53:21.621Z,100137.34
2023-05-04T14:55:49.476Z,100137.06
2023-05-04T14:58:18.961Z,100137.88
2023-05-04T15:03:32.128Z,100120.63
2023-05-04T15:06:03.964Z,100121.19
2023-05-04T15:08:34.696Z,100113.00
2023-05-04T15:11:03.844Z,100116.31
2023-05-04T15:13:38.118Z,100112.47
2023-05-04T15:16:08.581Z,100105.34
2023-05-04T15:18:37.288Z,100108.88
2023-05-04T15:21:06.144Z,100105.88
2023-05-04T15:23:38.551Z,100104.25
2023-05-04T15:26:07.301Z,100114.34
2023-05-04T15:28:36.426Z,100105.91
2023-05-04T15:31:08.783Z,100113.53
2023-05-04T15:33:37.568Z,100114.09
2023-05-04T15:36:14.646Z,100113.78
2023-05-04T15:38:44.783Z,100122.28
2023-05-04T15:41:14.081Z,100119.56
2023-05-04T15:43:41.724Z,100122.03
2023-05-04T15:46:12.151Z,100119.53
2023-05-04T15:48:40.065Z,100113.00
2023-05-04T15:51:11.371Z,100116.53
2023-05-04T15:53:39.147Z,100111.25
2023-05-04T15:56:08.451Z,100104.72
2023-05-04T15:58:36.115Z,100105.88
2023-05-04T16:01:04.462Z,100104.22
2023-05-04T16:03:33.479Z,100101.44
2023-05-04T16:06:01.717Z,100094.69
2023-05-04T16:08:29.375Z,100088.94
2023-05-04T16:10:57.709Z,100092.75
2023-05-04T16:13:28.324Z,100090.00
2023-05-04T16:15:56.285Z,100084.53
2023-05-04T16:18:25.107Z,100080.19
2023-05-04T16:20:54.534Z,100074.75
2023-05-04T16:23:22.152Z,100063.81
2023-05-04T16:25:49.706Z,100068.16
2023-05-04T16:28:17.326Z,100066.78
2023-05-04T16:30:46.555Z,100053.38
2023-05-04T16:33:14.713Z,100047.94
2023-05-04T16:35:42.452Z,100052.59
2023-05-04T16:38:12.145Z,100046.31
2023-05-04T16:40:41.175Z,100047.38
2023-05-04T16:43:12.207Z,100045.50
2023-05-04T16:45:39.884Z,100037.31
2023-05-04T16:48:08.955Z,100039.22
2023-05-04T16:50:36.623Z,100046.84
2023-05-04T16:53:04.346Z,100051.22
2023-05-04T16:55:32.125Z,100052.31
2023-05-04T16:58:03.429Z,100060.25
2023-05-04T17:00:31.746Z,100055.34
2023-05-04T17:03:02.233Z,100046.59
2023-05-04T17:05:31.758Z,100048.50
2023-05-04T17:07:59.651Z,100048.50
2023-05-04T17:10:27.526Z,100044.91
2023-05-04T17:12:57.224Z,100048.19
2023-05-04T17:15:25.073Z,100036.16
2023-05-04T17:17:56.714Z,100039.44
2023-05-04T17:20:28.643Z,100032.06
2023-05-04T17:22:59.021Z,100022.50
2023-05-04T17:25:27.874Z,100032.63
2023-05-04T17:27:55.774Z,100028.53
2023-05-04T17:30:23.986Z,100029.88
2023-05-04T17:32:54.813Z,100028.78
2023-05-04T17:35:25.693Z,100029.59
2023-05-04T17:37:57.639Z,100024.09
2023-05-04T17:40:29.028Z,100038.03
2023-05-04T17:43:04.282Z,100033.66
2023-05-04T17:45:35.285Z,100038.03
2023-05-04T17:48:04.317Z,100042.91
2023-05-04T17:50:32.255Z,100030.91
2023-05-04T17:52:59.880Z,100031.16
2023-05-04T17:55:29.189Z,100032.78
2023-05-04T17:57:58.114Z,100034.47
2023-05-04T18:00:25.800Z,100044.81
2023-05-04T18:02:53.639Z,100048.06
2023-05-04T18:05:21.420Z,100048.03
2023-05-04T18:07:53.397Z,100051.59
2023-05-04T18:10:24.503Z,100053.22
2023-05-04T18:13:00.530Z,100057.03
2023-05-04T18:15:28.913Z,100061.91
2023-05-04T18:17:56.656Z,100052.84
2023-05-04T18:20:24.879Z,100047.88
2023-05-04T18:22:52.667Z,100056.31
2023-05-04T18:25:20.437Z,100062.56
2023-05-04T18:27:48.030Z,100057.09
2023-05-04T18:30:17.840Z,100059.50
2023-05-04T18:32:46.525Z,100061.88
2023-05-04T18:35:14.219Z,100058.78
2023-05-04T18:37:42.120Z,100070.69
2023-05-04T18:42:55.836Z,100065.16
2023-05-04T18:45:27.863Z,100063.44
2023-05-04T18:47:56.276Z,100064.53
2023-05-04T18:50:24.360Z,100072.41
2023-05-04T18:55:41.083Z,100089.28
2023-05-04T18:58:08.684Z,100087.59
2023-05-04T19:00:37.599Z,100091.28
2023-05-04T19:03:05.180Z,100095.03
2023-05-04T19:05:37.628Z,100097.31
2023-05-04T19:08:08.845Z,100099.69
2023-05-04T19:10:36.503Z,100098.72
2023-05-04T19:13:04.496Z,100106.25
2023-05-04T19:15:34.067Z,100107.84
2023-05-04T19:18:03.168Z,100114.34
2023-05-04T19:20:30.902Z,100118.72
2023-05-04T19:22:59.213Z,100119.63
2023-05-04T19:28:01.779Z,100114.88
2023-05-04T19:30:31.649Z,100122.13
2023-05-04T19:32:59.405Z,100116.41
2023-05-04T19:35:28.498Z,100118.41
2023-05-04T19:37:56.161Z,100120.72
2023-05-04T19:40:23.826Z,100124.25
2023-05-04T19:42:51.666Z,100121.78
2023-05-04T19:45:19.414Z,100124.41
2023-05-04T19:47:48.431Z,100124.25
2023-05-04T19:50:16.605Z,100135.59
2023-05-04T19:52:45.783Z,100134.97
2023-05-04T19:55:13.486Z,100121.22
2023-05-04T19:57:41.148Z,100127.59
2023-05-04T20:00:10.411Z,100130.78
2023-05-04T20:02:41.161Z,100125.69
2023-05-04T20:05:09.300Z,100128.91
2023-05-04T20:07:36.941Z,100129.69
2023-05-04T20:10:06.948Z,100132.09
2023-05-04T20:12:34.861Z,100123.72
2023-05-04T20:15:02.749Z,100126.63
2023-05-04T20:17:30.777Z,100130.88
2023-05-04T20:19:58.865Z,100129.41
2023-05-04T20:22:26.595Z,100131.09
2023-05-04T20:24:54.297Z,100129.81
2023-05-04T20:27:23.455Z,100138.44
2023-05-04T20:29:52.121Z,100138.59
2023-05-04T20:32:20.971Z,100134.06
2023-05-04T20:34:48.797Z,100138.78
2023-05-04T20:37:17.905Z,100144.00
2023-05-04T20:39:47.225Z,100139.53
2023-05-04T20:42:18.797Z,100138.97
2023-05-04T20:44:48.198Z,100145.22
2023-05-04T20:47:15.843Z,100146.31
2023-05-04T20:49:43.624Z,100145.81
2023-05-04T20:52:12.889Z,100134.38
2023-05-04T20:54:40.558Z,100146.78
2023-05-04T20:57:10.644Z,100144.53
2023-05-04T20:59:38.587Z,100144.69
2023-05-04T21:02:10.269Z,100134.69
2023-05-04T21:04:37.930Z,100134.19
2023-05-04T21:07:06.171Z,100136.41
2023-05-04T21:09:34.223Z,100132.31
2023-05-04T21:12:02.913Z,100131.03
2023-05-04T21:14:30.732Z,100118.41
2023-05-04T21:16:58.371Z,100121.03
2023-05-04T21:19:27.469Z,100124.66
2023-05-04T21:22:02.772Z,100124.06
2023-05-04T21:24:32.072Z,100123.63
2023-05-04T21:27:00.445Z,100123.25
2023-05-04T21:29:28.146Z,100136.19
2023-05-04T21:31:56.446Z,100124.66
2023-05-04T21:34:24.838Z,100128.19
2023-05-04T21:36:53.825Z,100121.03
2023-05-04T21:39:23.062Z,100131.38
2023-05-04T21:41:51.294Z,100131.09
2023-05-04T21:44:18.913Z,100136.69
2023-05-04T21:46:46.643Z,100131.84
2023-05-04T21:49:14.359Z,100139.94
2023-05-04T21:51:42.850Z,100135.44
2023-05-04T21:54:11.857Z,100130.03
2023-05-04T21:56:41.317Z,100133.53
2023-05-04T21:59:08.939Z,100134.69
2023-05-04T22:01:36.822Z,100133.84
2023-05-04T22:04:06.744Z,100129.34
2023-05-04T22:06:34.834Z,100135.63
2023-05-04T22:09:02.917Z,100132.28
2023-05-04T22:11:31.800Z,100133.22
2023-05-04T22:13:59.447Z,100129.91
2023-05-04T22:16:27.078Z,100132.44
2023-05-04T22:18:54.801Z,100124.44
2023-05-04T22:21:22.656Z,100129.69
2023-05-04T22:23:50.565Z,100124.66
2023-05-04T22:26:18.193Z,100130.41
2023-05-04T22:28:47.126Z,100122.28
2023-05-04T22:31:14.766Z,100127.00
2023-05-04T22:33:42.610Z,100125.19
2023-05-04T22:36:10.926Z,100131.22
2023-05-04T22:38:38.505Z,100122.38
2023-05-04T22:41:06.862Z,100131.75
2023-05-04T22:43:34.457Z,100136.94
2023-05-04T22:46:03.493Z,100134.78
2023-05-04T22:48:32.386Z,100129.88
2023-05-04T22:51:01.109Z,100126.53
2023-05-04T22:53:28.681Z,100134.44
2023-05-04T22:55:56.352Z,100133.69
2023-05-04T22:58:23.930Z,100136.72
2023-05-04T23:00:51.747Z,100134.44
2023-05-04T23:03:20.822Z,100135.28
2023-05-04T23:05:48.606Z,100137.69
2023-05-04T23:08:16.228Z,100139.78
2023-05-04T23:10:45.717Z,100136.84
2023-05-04T23:13:13.571Z,100138.28
2023-05-04T23:15:41.346Z,100136.63
2023-05-04T23:18:09.098Z,100139.44
2023-05-04T23:20:38.234Z,100135.25
2023-05-04T23:23:06.167Z,100129.41
2023-05-04T23:25:34.086Z,100130.25
2023-05-04T23:28:02.723Z,100137.16
2023-05-04T23:30:30.378Z,100128.25
2023-05-04T23:32:58.472Z,100125.59
2023-05-04T23:35:26.749Z,100129.38
2023-05-04T23:37:55.733Z,100121.72
2023-05-04T23:40:24.741Z,100117.88
2023-05-04T23:42:52.330Z,100112.59
2023-05-04T23:45:20.089Z,100120.13
2023-05-04T23:47:47.716Z,100127.03
2023-05-04T23:50:15.406Z,100117.34
2023-05-04T23:52:43.030Z,100114.34
2023-05-04T23:55:12.189Z,100108.78
2023-05-04T23:57:39.939Z,100108.00
